createdAt,value
2022-08-27T00:00:38.342Z,80.43
2022-08-27T00:03:10.592Z,78.97
2022-08-27T00:05:42.510Z,74.07
2022-08-27T00:08:17.298Z,82.27
2022-08-27T00:10:48.956Z,75.70
2022-08-27T00:13:20.626Z,78.20
2022-08-27T00:15:52.381Z,75.13
2022-08-27T00:18:24.052Z,78.17
2022-08-27T00:20:55.648Z,78.30
2022-08-27T00:23:27.412Z,76.90
2022-08-27T00:26:00.015Z,75.33
2022-08-27T00:28:32.252Z,75.90
2022-08-27T00:31:04.080Z,78.63
2022-08-27T00:33:35.869Z,77.10
2022-08-27T00:36:08.688Z,76.40
2022-08-27T00:38:41.220Z,80.90
2022-08-27T00:41:13.698Z,76.43
2022-08-27T00:43:52.417Z,75.20
2022-08-27T00:46:27.131Z,78.40
2022-08-27T00:49:05.367Z,77.57
2022-08-27T00:51:38.527Z,78.90
2022-08-27T00:54:11.224Z,79.33
2022-08-27T00:56:51.798Z,76.17
2022-08-27T00:59:29.284Z,77.60
2022-08-27T01:02:20.046Z,76.03
2022-08-27T01:05:05.469Z,78.63
2022-08-27T01:07:41.788Z,77.50
2022-08-27T01:10:16.857Z,79.43
2022-08-27T01:12:53.265Z,71.50
2022-08-27T01:15:27.968Z,81.40
2022-08-27T01:18:03.386Z,78.20
2022-08-27T01:21:09.879Z,79.10
2022-08-27T01:23:52.589Z,72.97
2022-08-27T01:26:25.209Z,81.23
2022-08-27T01:28:58.075Z,75.37
2022-08-27T01:31:29.935Z,76.63
2022-08-27T01:34:06.211Z,75.07
2022-08-27T01:36:37.900Z,75.93
2022-08-27T01:39:09.555Z,76.37
2022-08-27T01:41:44.562Z,76.77
2022-08-27T01:44:19.435Z,76.40
2022-08-27T01:46:52.559Z,77.57
2022-08-27T01:49:24.241Z,77.13
2022-08-27T01:51:55.933Z,75.77
2022-08-27T01:54:27.571Z,78.07
2022-08-27T01:56:59.992Z,80.30
2022-08-27T01:59:39.555Z,83.93
2022-08-27T02:02:14.332Z,80.40
2022-08-27T02:04:45.992Z,83.20
2022-08-27T02:07:18.369Z,79.83
2022-08-27T02:09:50.652Z,81.47
2022-08-27T02:12:22.417Z,80.10
2022-08-27T02:14:54.036Z,80.17
2022-08-27T02:17:25.692Z,78.13
2022-08-27T02:19:57.547Z,78.90
2022-08-27T02:22:31.340Z,77.68
2022-08-27T02:25:07.087Z,77.90
2022-08-27T02:27:43.880Z,82.57
2022-08-27T02:30:21.417Z,78.75
2022-08-27T02:32:53.471Z,75.77
2022-08-27T02:35:25.192Z,77.50
2022-08-27T02:37:57.480Z,78.20
2022-08-27T02:40:29.761Z,79.83
2022-08-27T02:43:01.564Z,79.47
2022-08-27T02:45:33.264Z,79.57
2022-08-27T02:48:08.012Z,80.18
2022-08-27T02:50:43.651Z,80.47
2022-08-27T02:53:15.280Z,84.23
2022-08-27T02:55:47.989Z,83.10
2022-08-27T02:58:19.700Z,85.00
2022-08-27T03:00:52.004Z,78.40
2022-08-27T03:03:23.703Z,80.17
2022-08-27T03:05:56.244Z,77.93
2022-08-27T03:08:28.795Z,80.40
2022-08-27T03:11:04.369Z,77.33
2022-08-27T03:13:38.203Z,76.67
2022-08-27T03:16:09.931Z,80.93
2022-08-27T03:18:41.868Z,78.27
2022-08-27T03:21:22.258Z,82.07
2022-08-27T03:23:54.365Z,78.30
2022-08-27T03:26:26.187Z,78.10
2022-08-27T03:28:59.295Z,80.50
2022-08-27T03:31:31.289Z,79.97
2022-08-27T03:34:07.479Z,78.30
2022-08-27T03:36:39.079Z,81.93
2022-08-27T03:39:10.697Z,83.23
2022-08-27T03:41:54.274Z,85.00
2022-08-27T03:47:00.062Z,82.73
2022-08-27T03:49:32.964Z,86.87
2022-08-27T03:52:04.707Z,88.80
2022-08-27T03:54:38.371Z,89.00
2022-08-27T03:57:10.637Z,85.70
2022-08-27T03:59:42.278Z,91.60
2022-08-27T04:02:14.978Z,89.87
2022-08-27T04:04:47.279Z,88.13
2022-08-27T04:07:19.181Z,84.10
2022-08-27T04:09:50.837Z,90.00
2022-08-27T04:12:22.445Z,85.57
2022-08-27T04:14:54.534Z,87.30
2022-08-27T04:17:26.330Z,82.73
2022-08-27T04:20:08.678Z,88.07
2022-08-27T04:22:51.484Z,90.97
2022-08-27T04:25:23.121Z,88.77
2022-08-27T04:27:54.772Z,89.40
2022-08-27T04:30:26.824Z,83.63
2022-08-27T04:32:58.793Z,86.40
2022-08-27T04:35:30.520Z,82.90
2022-08-27T04:38:03.533Z,81.13
2022-08-27T04:40:55.761Z,84.50
2022-08-27T04:43:28.321Z,86.83
2022-08-27T04:46:02.875Z,82.53
2022-08-27T04:48:35.603Z,84.30
2022-08-27T04:51:10.123Z,83.40
2022-08-27T04:53:46.636Z,87.97
2022-08-27T04:56:21.905Z,84.40
2022-08-27T04:58:53.535Z,86.13
2022-08-27T05:01:28.922Z,81.43
2022-08-27T05:04:00.942Z,84.87
2022-08-27T05:06:33.680Z,81.10
2022-08-27T05:09:06.076Z,86.37
2022-08-27T05:11:37.787Z,86.03
2022-08-27T05:14:11.689Z,86.57
2022-08-27T05:16:43.485Z,88.95
2022-08-27T05:19:15.385Z,86.47
2022-08-27T05:21:48.903Z,87.87
2022-08-27T05:24:21.557Z,87.63
2022-08-27T05:26:53.958Z,84.33
2022-08-27T05:29:26.556Z,86.10
2022-08-27T05:31:58.406Z,86.13
2022-08-27T05:34:30.776Z,88.90
2022-08-27T05:37:03.502Z,90.87
2022-08-27T05:39:35.164Z,88.03
2022-08-27T05:42:07.303Z,94.90
2022-08-27T05:44:41.321Z,87.23
2022-08-27T05:49:45.503Z,86.27
2022-08-27T05:52:17.167Z,91.17
2022-08-27T05:54:48.794Z,90.90
2022-08-27T05:57:20.443Z,87.93
2022-08-27T06:00:15.613Z,82.90
2022-08-27T06:02:50.571Z,86.77
2022-08-27T06:05:22.360Z,88.90
2022-08-27T06:07:54.042Z,86.70
2022-08-27T06:10:25.691Z,83.87
2022-08-27T06:12:57.338Z,87.03
2022-08-27T06:15:29.454Z,90.33
2022-08-27T06:18:01.623Z,86.53
2022-08-27T06:20:33.220Z,83.90
2022-08-27T06:23:05.499Z,86.27
2022-08-27T06:25:40.611Z,82.40
2022-08-27T06:28:13.504Z,81.30
2022-08-27T06:30:45.200Z,86.70
2022-08-27T06:33:17.405Z,89.20
2022-08-27T06:35:48.988Z,87.43
2022-08-27T06:38:20.640Z,86.50
2022-08-27T06:40:52.240Z,84.37
2022-08-27T06:43:25.214Z,87.13
2022-08-27T06:45:56.953Z,89.13
2022-08-27T06:48:28.610Z,86.20
2022-08-27T06:51:14.513Z,92.33
2022-08-27T06:53:47.500Z,87.87
2022-08-27T06:56:19.933Z,93.93
2022-08-27T06:59:00.524Z,98.97
2022-08-27T07:01:38.459Z,91.67
2022-08-27T07:04:14.152Z,85.60
2022-08-27T07:06:45.970Z,86.60
2022-08-27T07:09:20.625Z,93.27
2022-08-27T07:11:52.276Z,88.60
2022-08-27T07:14:23.901Z,89.60
2022-08-27T07:16:55.524Z,83.37
2022-08-27T07:19:30.304Z,88.30
2022-08-27T07:22:03.079Z,88.23
2022-08-27T07:24:35.805Z,94.03
2022-08-27T07:27:07.983Z,90.77
2022-08-27T07:29:40.809Z,92.43
2022-08-27T07:32:12.530Z,95.50
2022-08-27T07:34:44.303Z,90.70
2022-08-27T07:37:15.915Z,93.80
2022-08-27T07:39:47.901Z,91.83
2022-08-27T07:42:38.177Z,98.30
2022-08-27T07:45:13.146Z,95.20
2022-08-27T07:47:44.877Z,93.23
2022-08-27T07:50:16.608Z,92.10
2022-08-27T07:52:48.213Z,90.30
2022-08-27T07:55:19.951Z,95.57
2022-08-27T07:57:52.879Z,96.33
2022-08-27T08:00:25.509Z,97.23
2022-08-27T08:02:57.555Z,93.33
2022-08-27T08:05:29.968Z,95.67
2022-08-27T08:08:01.755Z,97.30
2022-08-27T08:10:36.661Z,100.73
2022-08-27T08:13:08.323Z,96.40
2022-08-27T08:15:40.102Z,98.20
2022-08-27T08:18:12.250Z,100.40
2022-08-27T08:20:57.724Z,98.13
2022-08-27T08:23:30.573Z,100.93
2022-08-27T08:26:02.842Z,97.10
2022-08-27T08:28:34.826Z,99.80
2022-08-27T08:31:07.044Z,102.13
2022-08-27T08:33:39.089Z,99.80
2022-08-27T08:36:13.706Z,101.70
2022-08-27T08:38:48.358Z,96.80
2022-08-27T08:41:38.085Z,100.97
2022-08-27T08:44:33.068Z,103.07
2022-08-27T08:50:08.172Z,97.47
2022-08-27T08:53:07.489Z,102.40
2022-08-27T08:55:55.048Z,97.60
2022-08-27T08:58:52.752Z,101.83
2022-08-27T09:01:27.639Z,101.80
2022-08-27T09:04:09.333Z,99.13
2022-08-27T09:07:04.502Z,95.70
2022-08-27T09:09:54.774Z,98.07
2022-08-27T09:12:30.644Z,98.63
2022-08-27T09:15:26.733Z,97.27
2022-08-27T09:18:15.045Z,98.07
2022-08-27T09:20:51.506Z,99.93
2022-08-27T09:23:33.160Z,97.77
2022-08-27T09:26:04.824Z,98.80
2022-08-27T09:28:59.708Z,102.73
2022-08-27T09:31:41.113Z,99.22
2022-08-27T09:34:13.954Z,102.43
2022-08-27T09:37:00.227Z,98.53
2022-08-27T09:39:52.180Z,98.53
2022-08-27T09:42:38.782Z,101.40
2022-08-27T09:45:14.736Z,102.13
2022-08-27T09:48:02.286Z,98.17
2022-08-27T09:50:43.961Z,101.97
2022-08-27T09:53:18.891Z,97.60
2022-08-27T09:55:57.537Z,99.00
2022-08-27T09:58:34.436Z,99.63
2022-08-27T10:01:20.230Z,99.87
2022-08-27T10:04:08.115Z,96.80
2022-08-27T10:06:47.088Z,100.43
2022-08-27T10:09:34.689Z,97.27
2022-08-27T10:12:15.382Z,96.27
2022-08-27T10:14:52.540Z,93.50
2022-08-27T10:17:43.763Z,100.63
2022-08-27T10:20:31.004Z,95.67
2022-08-27T10:23:14.948Z,99.03
2022-08-27T10:26:11.877Z,99.22
2022-08-27T10:29:05.976Z,99.93
2022-08-27T10:31:46.010Z,100.05
2022-08-27T10:34:39.112Z,103.97
2022-08-27T10:37:26.183Z,105.97
2022-08-27T10:40:27.058Z,105.83
2022-08-27T10:43:20.227Z,106.10
2022-08-27T10:45:57.543Z,102.07
2022-08-27T10:48:39.902Z,104.77
2022-08-27T10:51:17.598Z,100.17
2022-08-27T10:53:58.220Z,104.03
2022-08-27T10:56:39.050Z,107.87
2022-08-27T10:59:42.159Z,107.33
2022-08-27T11:02:25.873Z,107.27
2022-08-27T11:05:06.158Z,112.30
2022-08-27T11:07:42.216Z,111.40
2022-08-27T11:10:23.759Z,112.27
2022-08-27T11:12:59.911Z,111.30
2022-08-27T11:15:35.169Z,114.97
2022-08-27T11:18:31.629Z,117.17
2022-08-27T11:21:18.849Z,117.40
2022-08-27T11:23:59.428Z,116.53
2022-08-27T11:26:33.642Z,118.20
2022-08-27T11:29:33.175Z,114.93
2022-08-27T11:32:18.775Z,116.17
2022-08-27T11:34:58.230Z,113.28
2022-08-27T11:37:48.628Z,118.60
2022-08-27T11:40:41.700Z,118.27
2022-08-27T11:43:18.415Z,115.13
2022-08-27T11:45:57.526Z,111.70
2022-08-27T11:48:30.313Z,108.40
2022-08-27T11:51:03.731Z,113.60
2022-08-27T11:53:42.709Z,115.05
2022-08-27T11:56:36.893Z,110.90
2022-08-27T11:59:32.537Z,114.22
2022-08-27T12:02:26.161Z,111.60
2022-08-27T12:05:10.537Z,110.33
2022-08-27T12:07:46.041Z,112.45
2022-08-27T12:10:29.848Z,121.13
2022-08-27T12:13:25.095Z,118.00
2022-08-27T12:16:16.391Z,116.43
2022-08-27T12:19:18.171Z,113.50
2022-08-27T12:21:49.741Z,113.63
2022-08-27T12:24:42.913Z,116.53
2022-08-27T12:27:29.500Z,115.47
2022-08-27T12:30:29.897Z,110.33
2022-08-27T12:33:13.751Z,114.57
2022-08-27T12:35:48.658Z,111.55
2022-08-27T12:38:37.794Z,108.23
2022-08-27T12:41:10.041Z,112.27
2022-08-27T12:43:43.967Z,110.47
2022-08-27T12:46:19.025Z,107.32
2022-08-27T12:49:10.067Z,101.63
2022-08-27T12:51:52.925Z,105.47
2022-08-27T12:54:42.825Z,110.78
2022-08-27T12:57:41.620Z,109.00
2022-08-27T13:00:24.163Z,110.07
2022-08-27T13:03:26.693Z,109.57
2022-08-27T13:06:00.898Z,109.57
2022-08-27T13:11:21.905Z,113.77
2022-08-27T13:14:06.172Z,110.40
2022-08-27T13:16:43.017Z,117.55
2022-08-27T13:19:24.218Z,110.23
2022-08-27T13:21:56.875Z,110.30
2022-08-27T13:24:44.362Z,107.63
2022-08-27T13:27:16.329Z,114.17
2022-08-27T13:29:48.098Z,104.93
2022-08-27T13:32:20.559Z,103.63
2022-08-27T13:34:53.432Z,106.63
2022-08-27T13:37:30.217Z,107.83
2022-08-27T13:40:02.025Z,105.07
2022-08-27T13:42:33.971Z,113.07
2022-08-27T13:45:06.288Z,106.27
2022-08-27T13:47:48.841Z,106.87
2022-08-27T13:50:29.755Z,102.67
2022-08-27T13:53:25.774Z,108.53
2022-08-27T13:55:58.895Z,104.37
2022-08-27T13:58:33.590Z,107.00
2022-08-27T14:01:14.693Z,104.03
2022-08-27T14:04:03.755Z,103.97
2022-08-27T14:06:46.635Z,104.23
2022-08-27T14:09:25.426Z,105.53
2022-08-27T14:12:04.379Z,106.87
2022-08-27T14:14:38.882Z,108.70
2022-08-27T14:17:29.821Z,105.40
2022-08-27T14:20:02.927Z,106.90
2022-08-27T14:22:38.700Z,107.53
2022-08-27T14:25:10.763Z,107.63
2022-08-27T14:27:47.892Z,104.57
2022-08-27T14:30:29.318Z,106.87
2022-08-27T14:33:02.531Z,103.87
2022-08-27T14:35:35.954Z,102.10
2022-08-27T14:38:20.420Z,102.60
2022-08-27T14:40:54.571Z,111.40
2022-08-27T14:43:26.296Z,102.37
2022-08-27T14:45:58.773Z,104.03
2022-08-27T14:48:33.911Z,103.50
2022-08-27T14:51:12.316Z,102.80
2022-08-27T14:53:43.958Z,105.57
2022-08-27T14:56:17.839Z,114.87
2022-08-27T14:58:49.911Z,103.97
2022-08-27T15:01:26.372Z,101.83
2022-08-27T15:03:58.528Z,107.20
2022-08-27T15:06:30.564Z,103.87
2022-08-27T15:09:03.433Z,106.33
2022-08-27T15:11:37.616Z,99.60
2022-08-27T15:16:44.716Z,103.60
2022-08-27T15:19:19.650Z,98.80
2022-08-27T15:21:53.251Z,101.57
2022-08-27T15:24:28.566Z,102.85
2022-08-27T15:27:00.214Z,104.03
2022-08-27T15:29:31.810Z,101.83
2022-08-27T15:32:04.164Z,102.83
2022-08-27T15:34:35.805Z,104.10
2022-08-27T15:37:07.493Z,103.20
2022-08-27T15:39:39.128Z,102.50
2022-08-27T15:42:11.633Z,100.47
2022-08-27T15:44:49.559Z,106.90
2022-08-27T15:47:22.505Z,109.57
2022-08-27T15:49:54.219Z,98.50
2022-08-27T15:52:40.237Z,107.27
2022-08-27T15:55:25.920Z,105.80
2022-08-27T15:57:58.365Z,102.23
2022-08-27T16:00:33.702Z,105.07
2022-08-27T16:03:09.186Z,102.93
2022-08-27T16:05:44.220Z,109.43
2022-08-27T16:08:15.855Z,103.10
2022-08-27T16:10:47.569Z,106.87
2022-08-27T16:13:19.678Z,105.80
2022-08-27T16:15:52.154Z,108.40
2022-08-27T16:18:30.757Z,101.93
2022-08-27T16:21:04.173Z,106.87
2022-08-27T16:23:36.645Z,106.95
2022-08-27T16:26:08.220Z,106.80
2022-08-27T16:28:39.825Z,107.03
2022-08-27T16:31:13.601Z,106.07
2022-08-27T16:33:45.389Z,105.68
2022-08-27T16:36:17.028Z,106.70
2022-08-27T16:38:48.718Z,100.77
2022-08-27T16:41:21.389Z,104.07
2022-08-27T16:43:53.058Z,107.00
2022-08-27T16:46:25.097Z,101.97
2022-08-27T16:49:15.086Z,104.30
2022-08-27T16:51:46.931Z,103.83
2022-08-27T16:54:18.669Z,103.03
2022-08-27T16:56:50.473Z,106.77
2022-08-27T16:59:22.136Z,105.40
2022-08-27T17:01:55.310Z,102.70
2022-08-27T17:04:32.328Z,101.67
2022-08-27T17:07:09.883Z,104.50
2022-08-27T17:09:41.513Z,102.13
2022-08-27T17:12:15.062Z,100.10
2022-08-27T17:14:46.958Z,104.55
2022-08-27T17:17:19.276Z,102.77
2022-08-27T17:19:50.863Z,99.37
2022-08-27T17:22:22.490Z,101.80
2022-08-27T17:24:54.091Z,101.63
2022-08-27T17:27:25.753Z,101.40
2022-08-27T17:30:03.742Z,102.37
2022-08-27T17:32:39.815Z,97.53
2022-08-27T17:35:11.885Z,96.80
2022-08-27T17:37:43.537Z,99.67
2022-08-27T17:40:15.172Z,99.17
2022-08-27T17:42:46.935Z,96.37
2022-08-27T17:45:18.694Z,99.57
2022-08-27T17:47:50.316Z,103.80
2022-08-27T17:50:21.900Z,98.90
2022-08-27T17:52:53.504Z,98.00
2022-08-27T17:55:27.338Z,99.60
2022-08-27T17:57:58.916Z,100.57
2022-08-27T18:00:31.571Z,99.33
2022-08-27T18:03:04.261Z,98.83
2022-08-27T18:05:35.870Z,97.20
2022-08-27T18:08:07.573Z,94.17
2022-08-27T18:10:41.075Z,95.37
2022-08-27T18:13:14.866Z,95.97
2022-08-27T18:15:47.882Z,93.70
2022-08-27T18:18:19.630Z,92.13
2022-08-27T18:20:51.568Z,91.30
2022-08-27T18:23:23.753Z,89.30
2022-08-27T18:25:55.937Z,93.17
2022-08-27T18:28:28.861Z,94.00
2022-08-27T18:31:05.503Z,95.03
2022-08-27T18:33:38.501Z,92.27
2022-08-27T18:36:10.981Z,88.23
2022-08-27T18:38:50.055Z,93.80
2022-08-27T18:41:22.525Z,95.17
2022-08-27T18:43:54.200Z,95.27
2022-08-27T18:46:25.941Z,90.20
2022-08-27T18:48:57.606Z,90.93
2022-08-27T18:51:31.442Z,92.33
2022-08-27T18:54:07.393Z,90.00
2022-08-27T18:56:39.048Z,93.70
2022-08-27T18:59:11.245Z,86.17
2022-08-27T19:01:44.637Z,88.43
2022-08-27T19:04:18.491Z,91.68
2022-08-27T19:06:50.217Z,90.22
2022-08-27T19:09:21.792Z,90.37
2022-08-27T19:11:53.410Z,86.57
2022-08-27T19:14:25.018Z,90.33
2022-08-27T19:16:57.316Z,86.70
2022-08-27T19:19:29.086Z,88.37
2022-08-27T19:22:00.944Z,94.33
2022-08-27T19:24:40.015Z,90.87
2022-08-27T19:27:11.962Z,89.33
2022-08-27T19:29:43.975Z,90.20
2022-08-27T19:32:18.573Z,87.97
2022-08-27T19:34:52.690Z,92.40
2022-08-27T19:37:26.829Z,90.05
2022-08-27T19:39:58.561Z,92.43
2022-08-27T19:42:31.096Z,85.10
2022-08-27T19:45:02.719Z,89.57
2022-08-27T19:47:35.095Z,90.73
2022-08-27T19:50:09.429Z,88.67
2022-08-27T19:55:14.452Z,83.83
2022-08-27T19:57:48.275Z,86.40
2022-08-27T20:00:21.773Z,89.17
2022-08-27T20:02:53.267Z,87.85
2022-08-27T20:05:25.263Z,84.40
2022-08-27T20:07:56.977Z,90.33
2022-08-27T20:10:35.942Z,89.40
2022-08-27T20:13:08.621Z,84.83
2022-08-27T20:15:40.774Z,84.33
2022-08-27T20:18:13.130Z,86.67
2022-08-27T20:20:44.941Z,88.73
2022-08-27T20:23:16.514Z,83.60
2022-08-27T20:25:48.231Z,86.03
2022-08-27T20:28:39.017Z,86.07
2022-08-27T20:31:11.305Z,83.67
2022-08-27T20:33:44.379Z,85.47
2022-08-27T20:36:16.188Z,86.77
2022-08-27T20:38:47.809Z,87.87
2022-08-27T20:41:20.637Z,84.47
2022-08-27T20:43:52.289Z,88.47
2022-08-27T20:46:26.370Z,84.07
2022-08-27T20:48:58.104Z,81.53
2022-08-27T20:51:29.792Z,83.30
2022-08-27T20:54:21.643Z,82.20
2022-08-27T20:56:53.377Z,82.30
2022-08-27T20:59:43.979Z,86.43
2022-08-27T21:02:21.554Z,86.17
2022-08-27T21:04:54.049Z,87.17
2022-08-27T21:07:25.797Z,86.60
2022-08-27T21:09:57.712Z,84.97
2022-08-27T21:12:31.840Z,88.70
2022-08-27T21:15:05.363Z,85.72
2022-08-27T21:17:37.108Z,84.85
2022-08-27T21:20:12.843Z,80.57
2022-08-27T21:22:44.869Z,85.07
2022-08-27T21:25:16.540Z,82.13
2022-08-27T21:27:48.117Z,82.00
2022-08-27T21:30:21.523Z,86.57
2022-08-27T21:32:55.853Z,87.75
2022-08-27T21:35:31.111Z,85.45
2022-08-27T21:38:03.313Z,84.73
2022-08-27T21:40:34.991Z,85.93
2022-08-27T21:43:07.128Z,83.97
2022-08-27T21:45:39.392Z,83.67
2022-08-27T21:48:11.325Z,87.70
2022-08-27T21:50:43.117Z,83.47
2022-08-27T21:53:15.228Z,85.13
2022-08-27T21:55:47.372Z,85.63
2022-08-27T21:58:23.328Z,88.23
2022-08-27T22:00:58.636Z,85.57
2022-08-27T22:03:31.277Z,87.00
2022-08-27T22:06:06.644Z,85.87
2022-08-27T22:08:39.101Z,83.53
2022-08-27T22:11:11.818Z,83.97
2022-08-27T22:13:43.536Z,83.53
2022-08-27T22:16:15.197Z,85.57
2022-08-27T22:18:46.811Z,86.50
2022-08-27T22:21:26.819Z,86.33
2022-08-27T22:23:58.786Z,86.93
2022-08-27T22:26:30.961Z,82.97
2022-08-27T22:29:03.848Z,86.70
2022-08-27T22:31:35.745Z,81.67
2022-08-27T22:34:08.109Z,86.67
2022-08-27T22:36:48.167Z,85.43
2022-08-27T22:39:20.188Z,80.37
2022-08-27T22:41:51.960Z,79.17
2022-08-27T22:44:24.782Z,87.27
2022-08-27T22:46:57.273Z,84.23
2022-08-27T22:49:28.902Z,84.00
2022-08-27T22:52:00.534Z,84.50
2022-08-27T22:54:32.260Z,83.33
2022-08-27T22:57:04.240Z,83.43
2022-08-27T22:59:35.963Z,78.00
2022-08-27T23:02:10.916Z,78.03
2022-08-27T23:04:54.685Z,77.87
2022-08-27T23:07:27.387Z,79.05
2022-08-27T23:10:01.912Z,82.03
2022-08-27T23:12:37.802Z,82.63
2022-08-27T23:15:11.547Z,80.73
2022-08-27T23:17:43.274Z,83.00
2022-08-27T23:20:16.240Z,82.27
2022-08-27T23:22:52.903Z,81.27
2022-08-27T23:25:45.603Z,78.33
2022-08-27T23:28:17.570Z,81.33
2022-08-27T23:30:49.702Z,80.83
2022-08-27T23:33:21.390Z,85.13
2022-08-27T23:35:53.004Z,79.17
2022-08-27T23:38:24.636Z,81.23
2022-08-27T23:40:56.829Z,81.80
2022-08-27T23:43:28.663Z,84.67
2022-08-27T23:46:00.316Z,84.90
2022-08-27T23:48:34.109Z,82.37
2022-08-27T23:51:07.869Z,78.72
2022-08-27T23:53:39.522Z,79.35
2022-08-27T23:56:11.243Z,80.93
2022-08-27T23:58:43.050Z,78.70
